createdAt,value
2019-01-02T04:01:03.894Z,4.39
2019-01-02T04:06:03.967Z,4.29
2019-01-02T04:11:06.855Z,4.39
2019-01-02T04:16:03.244Z,4.39
2019-01-02T04:21:03.707Z,4.49
2019-01-02T04:26:03.935Z,4.39
2019-01-02T04:31:02.974Z,4.39
2019-01-02T04:36:03.571Z,4.39
2019-01-02T04:41:03.021Z,4.39
2019-01-02T04:46:03.290Z,4.39
2019-01-02T04:51:03.883Z,4.39
2019-01-02T04:56:04.259Z,4.39
2019-01-02T05:01:03.303Z,4.39
2019-01-02T05:06:03.951Z,4.39
2019-01-02T05:11:03.362Z,4.49
2019-01-02T05:16:03.686Z,4.59
2019-01-02T05:21:03.081Z,4.59
2019-01-02T05:26:03.067Z,4.59
2019-01-02T05:31:03.369Z,4.59
2019-01-02T05:36:03.822Z,4.59
2019-01-02T05:41:03.386Z,4.59
2019-01-02T05:46:04.246Z,4.59
2019-01-02T05:51:03.435Z,4.39
2019-01-02T05:56:07.247Z,4.29
2019-01-02T06:01:03.929Z,4.29
2019-01-02T06:06:03.247Z,4.59
2019-01-02T06:11:03.853Z,4.59
2019-01-02T06:16:03.309Z,4.49
2019-01-02T06:21:04.358Z,4.49
2019-01-02T06:26:03.704Z,4.49
2019-01-02T06:31:02.984Z,4.49
2019-01-02T06:36:03.442Z,4.19
2019-01-02T06:41:02.993Z,4.19
2019-01-02T06:46:04.421Z,4.09
2019-01-02T06:51:03.790Z,4.09
2019-01-02T06:56:03.507Z,3.99
2019-01-02T07:01:03.512Z,3.99
2019-01-02T07:06:03.929Z,3.99
2019-01-02T07:11:03.339Z,3.99
2019-01-02T07:16:03.631Z,3.99
2019-01-02T07:21:03.112Z,4.09
2019-01-02T07:26:03.289Z,4.19
2019-01-02T07:31:03.612Z,4.19
2019-01-02T07:36:03.143Z,4.19
2019-01-02T07:41:03.696Z,4.19
2019-01-02T07:46:03.024Z,4.19
2019-01-02T07:51:03.448Z,4.19
2019-01-02T07:56:03.667Z,4.19
2019-01-02T15:16:06.002Z,3.93
2019-01-02T15:21:03.953Z,3.93
2019-01-02T15:26:19.225Z,3.93
2019-01-02T15:31:11.616Z,3.93
2019-01-02T15:36:03.867Z,3.93
2019-01-02T15:41:06.484Z,3.93
2019-01-02T15:46:03.974Z,3.30
2019-01-02T15:51:03.826Z,3.30
2019-01-02T15:56:03.047Z,3.30
2019-01-02T16:01:04.103Z,3.30
2019-01-02T16:06:03.798Z,3.30
2019-01-02T16:11:03.399Z,3.19
2019-01-02T16:16:03.698Z,3.19
2019-01-02T16:21:03.183Z,3.19
2019-01-02T16:26:03.378Z,3.19
2019-01-02T16:31:03.668Z,3.19
2019-01-02T16:36:03.171Z,2.29
2019-01-02T16:41:03.750Z,2.29
2019-01-02T16:46:03.062Z,2.19
2019-01-02T16:51:03.552Z,1.99
2019-01-02T16:56:05.356Z,1.89
2019-01-02T17:01:04.575Z,1.89
2019-01-02T17:06:10.258Z,1.69
2019-01-02T17:11:03.398Z,1.79
2019-01-02T17:16:03.700Z,1.79
2019-01-02T17:21:04.105Z,1.79
2019-01-02T17:26:03.319Z,1.79
2019-01-02T17:31:03.706Z,1.09
2019-01-02T17:36:04.961Z,1.09
2019-01-02T17:41:04.484Z,1.29
2019-01-02T17:46:04.769Z,1.29
2019-01-02T17:51:03.722Z,1.29
2019-01-02T17:56:04.444Z,1.29
2019-01-02T18:01:04.741Z,0.79
2019-01-02T18:06:04.541Z,0.79
2019-01-02T18:11:04.955Z,0.79
2019-01-02T18:16:10.481Z,0.39
2019-01-02T18:21:04.649Z,0.39
2019-01-02T18:26:06.745Z,0.39
2019-01-02T18:31:08.664Z,0.39
2019-01-02T18:36:04.637Z,0.39
2019-01-02T18:41:03.768Z,0.39
2019-01-02T18:46:03.433Z,0.19
2019-01-02T18:51:04.725Z,0.19
2019-01-02T18:56:03.125Z,0.19
2019-01-02T19:01:03.443Z,0.19
2019-01-02T19:06:04.871Z,0.19
2019-01-02T19:11:03.473Z,0.19
2019-01-02T19:16:03.765Z,0.19
2019-01-02T19:21:03.280Z,0.19
2019-01-02T19:26:03.489Z,0.19
2019-01-02T19:31:03.777Z,0.19
2019-01-02T19:36:03.270Z,0.19
2019-01-02T19:41:03.844Z,0.19
2019-01-02T19:46:03.366Z,-0.51
2019-01-02T19:51:03.721Z,-0.51
2019-01-02T19:56:04.274Z,-0.51
2019-01-02T20:01:04.045Z,-0.51
2019-01-02T20:06:07.509Z,-0.51
2019-01-02T20:11:04.878Z,-0.51
2019-01-02T20:16:04.088Z,-0.51
2019-01-02T20:21:03.925Z,-0.11
2019-01-02T20:26:03.124Z,-0.11
2019-01-02T20:31:03.436Z,0.09
2019-01-02T20:36:03.865Z,-0.31
2019-01-02T20:41:04.950Z,-0.41
2019-01-02T20:46:04.341Z,-0.31
2019-01-02T20:51:03.766Z,-0.21
2019-01-02T20:56:04.088Z,-0.21
2019-01-02T21:01:03.683Z,-0.21
2019-01-02T21:06:03.134Z,-0.11
2019-01-02T21:11:03.759Z,-0.11
2019-01-02T21:16:03.066Z,-0.61
2019-01-02T21:21:10.335Z,-0.71
2019-01-02T21:26:04.288Z,-0.81
2019-01-02T21:31:03.015Z,-0.81
2019-01-02T21:36:03.768Z,-0.81
2019-01-02T21:41:03.420Z,-0.81
2019-01-02T21:46:03.613Z,-0.81
2019-01-02T21:51:05.933Z,-1.01
2019-01-02T21:56:06.094Z,-0.91
2019-01-02T22:01:06.462Z,-0.91
2019-01-02T22:06:03.792Z,-0.91
2019-01-02T22:11:06.013Z,-1.21
2019-01-02T22:16:04.932Z,-1.21
2019-01-02T22:21:03.113Z,-1.21
2019-01-02T22:26:03.370Z,-1.21
2019-01-02T22:31:03.953Z,-1.41
2019-01-02T22:36:03.378Z,-1.41
2019-01-02T22:41:03.748Z,-1.41
